Flight Track Log - Related Links

Times and Time Zones

All times are in EDT time to prevent confusion due to time zone crossing. See the EJA122 flight status page for this flight to view local times or setup timezone preferences in your user account.

Time Position Orientation Groundspeed Altitude Reporting Facility
EDT Latitude Longitude Course Direction KTS km/h meters Rate Location/Type
Mon 15:14:44 25.9092 -80.2661 62° Northeast 157 291 152  Level Miami Center
Mon 15:16:04 25.9397 -80.2022 62° Northeast 232 430 610 194 Climbing Miami Center
Mon 15:17:05 25.9867 -80.2544 315° West 259 480 610 270 Level Miami Center
Mon 15:18:06 26.0119 -80.3267 291° West 261 483 1,158 645 Climbing Miami Center
Mon 15:19:07 26.0100 -80.4078 268° West 258 478 1,920 749 Climbing Miami Center
Mon 15:20:30 26.0011 -80.5206 265° West 273 505 2,957 537 Climbing Miami Center
Mon 15:21:30 26.0450 -80.5983 302° West 273 505 3,200 366 Climbing Miami Center
Mon 15:22:30 26.1164 -80.6653 320° Northwest 297 550 3,688 503 Climbing Miami Center
Mon 15:23:30 26.1878 -80.7369 318° Northwest 322 597 4,206 518 Climbing Miami Center
Mon 15:24:30 26.2656 -80.7950 326° Northwest 338 626 4,724 472 Climbing Miami Center
Mon 15:25:30 26.3414 -80.8486 328° Northwest 351 650 5,151 442 Climbing Miami Center
Mon 15:26:30 26.4314 -80.9119 328° Northwest 351 650 5,608 427 Climbing Miami Center
Mon 15:27:30 26.5072 -80.9633 329° Northwest 351 650 6,005 396 Climbing Miami Center
Mon 15:28:30 26.5892 -81.0197 328° Northwest 351 650 6,401 411 Climbing Miami Center
Mon 15:29:30 26.6792 -81.0833 328° Northwest 351 650 6,828 396 Climbing Miami Center
Mon 15:30:30 26.7611 -81.1397 328° Northwest 351 650 7,193 366 Climbing Miami Center
Mon 15:31:30 26.8428 -81.1986 327° Northwest 351 650 7,559 366 Climbing Miami Center
Mon 15:32:30 26.9167 -81.2478 329° Northwest 345 639 7,925 351 Climbing Miami Center
Mon 15:33:30 27.0042 -81.3139 326° Northwest 345 639 8,260 305 Climbing Miami Center
Mon 15:34:30 27.0861 -81.3708 328° Northwest 345 639 8,534 137 Climbing Miami Center
Mon 15:35:30 27.1719 -81.4300 328° Northwest 350 649 8,534  Level Miami Center
Mon 15:36:30 27.2636 -81.4944 328° Northwest 367 679 8,534  Level Miami Center
Mon 15:37:30 27.3494 -81.5564 327° Northwest 393 727 8,534  Level Miami Center
Mon 15:38:30 27.4575 -81.6356 327° Northwest 408 756 8,534  Level Miami Center
Mon 15:39:30 27.5553 -81.7078 327° Northwest 414 766 8,534  Level Miami Center
Mon 15:40:30 27.6550 -81.7775 328° Northwest 419 776 8,534  Level Miami Center
Mon 15:42:40 27.8731 -81.9278 329° Northwest 438 811 8,534  Level Jacksonville Center
Mon 15:43:40 27.9736 -82.0042 326° Northwest 444 822 8,534  Level Jacksonville Center
Mon 15:44:40 28.0722 -82.0906 322° Northwest 444 822 8,534  Level Jacksonville Center
Mon 15:45:40 28.1689 -82.1769 322° Northwest 444 822 8,534  Level Jacksonville Center
Mon 15:46:40 28.2694 -82.2658 322° Northwest 449 832 8,534  Level Jacksonville Center
Mon 15:47:40 28.3658 -82.3547 321° Northwest 449 832 8,534  Level Jacksonville Center
Mon 15:48:40 28.4642 -82.4439 321° Northwest 454 840 8,534 -46 Level Jacksonville Center
Mon 15:49:40 28.5625 -82.5308 322° Northwest 454 840 8,443 -168 Descending Jacksonville Center
Mon 15:50:40 28.6608 -82.6206 321° Northwest 454 840 8,199 -320 Descending Jacksonville Center
Mon 15:51:40 28.7611 -82.7103 322° Northwest 454 840 7,803 -427 Descending Jacksonville Center
Mon 15:52:40 28.8594 -82.8000 321° Northwest 454 840 7,346 -442 Descending Jacksonville Center
Mon 15:53:40 28.9575 -82.8878 322° Northwest 454 840 6,919 -320 Descending Jacksonville Center
Mon 15:54:40 29.0536 -82.9758 321° Northwest 454 840 6,706 -107 Descending Jacksonville Center
Mon 15:55:40 29.1433 -83.0567 322° Northwest 439 813 6,706  Level Jacksonville Center
Mon 15:56:40 29.2350 -83.1425 321° Northwest 425 787 6,706 -122 Level Jacksonville Center
Mon 15:57:40 29.3267 -83.2283 321° Northwest 425 787 6,462 -396 Descending Jacksonville Center
Mon 15:58:40 29.4142 -83.3097 321° Northwest 419 776 5,913 -518 Descending Jacksonville Center
Mon 15:59:40 29.5014 -83.3889 322° Northwest 409 758 5,425 -503 Descending Jacksonville Center
Mon 16:00:40 29.5806 -83.4706 318° Northwest 391 724 4,907 -533 Descending Jacksonville Center
Mon 16:01:40 29.6531 -83.5594 313° West 378 700 4,359 -549 Descending Jacksonville Center
Mon 16:02:40 29.7256 -83.6508 312° West 378 700 3,810 -503 Descending Jacksonville Center
Mon 16:03:40 29.7961 -83.7375 313° West 378 700 3,353 -229 Descending Jacksonville Center
Mon 16:04:40 29.8664 -83.8194 315° West 366 678 3,353 -61 Level Jacksonville Center
Mon 16:05:40 29.9389 -83.9017 316° Northwest 366 678 3,231 -305 Descending Jacksonville Center
Mon 16:06:40 30.0008 -83.9719 316° Northwest 338 626 2,743 -579 Descending Jacksonville Center
Mon 16:07:40 30.0525 -84.0372 312° West 304 563 2,073 -747 Descending Jacksonville Center
Mon 16:08:40 30.1064 -84.1050 313° West 286 529 1,250 -427 Descending Jacksonville Center
Mon 16:09:40 30.1619 -84.1706 314° West 286 529 1,219 -15 Descending Jacksonville Center
Mon 16:10:40 30.2367 -84.2150 333° Northwest 281 520 1,219  Level Jacksonville Center
Mon 16:11:40 30.3075 -84.2375 345° North 270 501 1,219 -168 Level Jacksonville Center
Mon 16:12:40 30.3575 -84.2553 343° North 225 417 884 -335 Descending Jacksonville Center
Mon 16:14:00 30.3833 -84.3500 325° Northwest  Level FlightAware Approximate
Mon 16:21:00 30.3967 -84.3509 325° Northwest  Level Estimated
Mon 16:22:00 30.3967 -84.3509 325° Northwest  Level Estimated

Login

Don't have an account? Register now (free) for customized features, flight alerts, and more!